sensor_id;sensor_type;location;lat;lon;timestamp;P1;durP1;ratioP1;P2;durP2;ratioP2
65145;SDS011;51730;56.950;24.126;2022-10-22T00:00:09;5.10;;;2.97;;
65145;SDS011;51730;56.950;24.126;2022-10-22T00:02:39;5.10;;;3.20;;
65145;SDS011;51730;56.950;24.126;2022-10-22T00:05:06;6.00;;;3.60;;
65145;SDS011;51730;56.950;24.126;2022-10-22T00:07:34;4.93;;;2.95;;
65145;SDS011;51730;56.950;24.126;2022-10-22T00:10:01;7.07;;;2.85;;
65145;SDS011;51730;56.950;24.126;2022-10-22T00:12:30;6.47;;;3.53;;
65145;SDS011;51730;56.950;24.126;2022-10-22T00:14:57;5.78;;;3.22;;
65145;SDS011;51730;56.950;24.126;2022-10-22T00:17:24;6.15;;;3.35;;
65145;SDS011;51730;56.950;24.126;2022-10-22T00:19:51;5.85;;;3.22;;
65145;SDS011;51730;56.950;24.126;2022-10-22T00:22:18;7.65;;;3.63;;
65145;SDS011;51730;56.950;24.126;2022-10-22T00:24:45;6.50;;;3.60;;
65145;SDS011;51730;56.950;24.126;2022-10-22T00:27:12;6.63;;;3.95;;
65145;SDS011;51730;56.950;24.126;2022-10-22T00:29:39;4.45;;;3.05;;
65145;SDS011;51730;56.950;24.126;2022-10-22T00:32:06;4.13;;;3.03;;
65145;SDS011;51730;56.950;24.126;2022-10-22T00:34:33;6.72;;;4.07;;
65145;SDS011;51730;56.950;24.126;2022-10-22T00:37:00;8.68;;;3.45;;
65145;SDS011;51730;56.950;24.126;2022-10-22T00:39:27;5.32;;;3.47;;
65145;SDS011;51730;56.950;24.126;2022-10-22T00:41:55;6.10;;;3.33;;
65145;SDS011;51730;56.950;24.126;2022-10-22T00:47:27;5.88;;;3.40;;
65145;SDS011;51730;56.950;24.126;2022-10-22T00:50:00;6.35;;;2.88;;
65145;SDS011;51730;56.950;24.126;2022-10-22T00:52:34;4.03;;;2.80;;
65145;SDS011;51730;56.950;24.126;2022-10-22T00:55:01;6.70;;;3.13;;
65145;SDS011;51730;56.950;24.126;2022-10-22T00:57:28;5.80;;;3.70;;
65145;SDS011;51730;56.950;24.126;2022-10-22T00:59:55;3.83;;;3.05;;
65145;SDS011;51730;56.950;24.126;2022-10-22T01:02:23;6.18;;;3.00;;
65145;SDS011;51730;56.950;24.126;2022-10-22T01:04:50;6.20;;;2.85;;
65145;SDS011;51730;56.950;24.126;2022-10-22T01:07:18;6.55;;;3.03;;
65145;SDS011;51730;56.950;24.126;2022-10-22T01:10:02;6.38;;;3.40;;
65145;SDS011;51730;56.950;24.126;2022-10-22T01:19:14;7.43;;;3.53;;
65145;SDS011;51730;56.950;24.126;2022-10-22T01:21:32;5.90;;;3.20;;
65145;SDS011;51730;56.950;24.126;2022-10-22T01:25:11;6.20;;;3.65;;
65145;SDS011;51730;56.950;24.126;2022-10-22T01:27:29;8.15;;;3.45;;
65145;SDS011;51730;56.950;24.126;2022-10-22T01:30:17;7.22;;;4.25;;
65145;SDS011;51730;56.950;24.126;2022-10-22T01:32:46;7.72;;;6.90;;
65145;SDS011;51730;56.950;24.126;2022-10-22T01:35:22;10.18;;;6.70;;
65145;SDS011;51730;56.950;24.126;2022-10-22T01:37:55;9.82;;;8.20;;
65145;SDS011;51730;56.950;24.126;2022-10-22T01:42:56;12.57;;;9.75;;
65145;SDS011;51730;56.950;24.126;2022-10-22T01:45:30;14.07;;;10.63;;
65145;SDS011;51730;56.950;24.126;2022-10-22T01:48:25;14.98;;;11.07;;
65145;SDS011;51730;56.950;24.126;2022-10-22T02:02:34;8.00;;;4.67;;
65145;SDS011;51730;56.950;24.126;2022-10-22T02:05:12;9.93;;;3.58;;
65145;SDS011;51730;56.950;24.126;2022-10-22T02:07:54;6.78;;;3.10;;
65145;SDS011;51730;56.950;24.126;2022-10-22T02:10:26;5.32;;;3.30;;
65145;SDS011;51730;56.950;24.126;2022-10-22T02:12:55;8.40;;;3.25;;
65145;SDS011;51730;56.950;24.126;2022-10-22T02:15:24;5.28;;;3.53;;
65145;SDS011;51730;56.950;24.126;2022-10-22T02:17:53;4.93;;;3.30;;
65145;SDS011;51730;56.950;24.126;2022-10-22T02:20:22;6.63;;;4.05;;
65145;SDS011;51730;56.950;24.126;2022-10-22T02:22:54;9.38;;;3.50;;
65145;SDS011;51730;56.950;24.126;2022-10-22T02:25:22;7.82;;;3.45;;
65145;SDS011;51730;56.950;24.126;2022-10-22T02:28:35;7.38;;;3.55;;
65145;SDS011;51730;56.950;24.126;2022-10-22T02:30:47;6.03;;;2.97;;
65145;SDS011;51730;56.950;24.126;2022-10-22T02:33:27;8.82;;;3.33;;
65145;SDS011;51730;56.950;24.126;2022-10-22T02:35:57;9.60;;;6.65;;
65145;SDS011;51730;56.950;24.126;2022-10-22T02:38:25;6.40;;;3.63;;
65145;SDS011;51730;56.950;24.126;2022-10-22T02:40:53;4.50;;;3.03;;
65145;SDS011;51730;56.950;24.126;2022-10-22T02:43:21;5.25;;;3.10;;
65145;SDS011;51730;56.950;24.126;2022-10-22T02:45:49;5.18;;;2.75;;
65145;SDS011;51730;56.950;24.126;2022-10-22T02:48:17;5.28;;;3.17;;
65145;SDS011;51730;56.950;24.126;2022-10-22T02:50:43;8.30;;;3.20;;
65145;SDS011;51730;56.950;24.126;2022-10-22T02:53:10;5.63;;;2.60;;
65145;SDS011;51730;56.950;24.126;2022-10-22T02:55:37;6.65;;;3.60;;
65145;SDS011;51730;56.950;24.126;2022-10-22T02:58:04;6.88;;;3.55;;
65145;SDS011;51730;56.950;24.126;2022-10-22T03:00:31;4.20;;;3.17;;
65145;SDS011;51730;56.950;24.126;2022-10-22T03:02:58;4.88;;;2.95;;
65145;SDS011;51730;56.950;24.126;2022-10-22T03:05:24;4.82;;;3.15;;
65145;SDS011;51730;56.950;24.126;2022-10-22T03:07:51;5.55;;;3.33;;
65145;SDS011;51730;56.950;24.126;2022-10-22T03:10:18;5.85;;;2.88;;
65145;SDS011;51730;56.950;24.126;2022-10-22T03:12:45;6.05;;;3.40;;
65145;SDS011;51730;56.950;24.126;2022-10-22T03:15:12;7.03;;;3.70;;
65145;SDS011;51730;56.950;24.126;2022-10-22T03:17:39;7.78;;;3.35;;
65145;SDS011;51730;56.950;24.126;2022-10-22T03:20:07;7.47;;;3.15;;
65145;SDS011;51730;56.950;24.126;2022-10-22T03:22:34;5.85;;;3.45;;
65145;SDS011;51730;56.950;24.126;2022-10-22T03:25:04;6.78;;;3.08;;
65145;SDS011;51730;56.950;24.126;2022-10-22T03:27:34;7.97;;;2.92;;
65145;SDS011;51730;56.950;24.126;2022-10-22T03:30:04;5.45;;;3.40;;
65145;SDS011;51730;56.950;24.126;2022-10-22T03:32:32;4.78;;;3.10;;
65145;SDS011;51730;56.950;24.126;2022-10-22T03:34:58;5.25;;;3.10;;
65145;SDS011;51730;56.950;24.126;2022-10-22T03:37:30;5.72;;;3.38;;
65145;SDS011;51730;56.950;24.126;2022-10-22T03:39:58;5.65;;;3.15;;
65145;SDS011;51730;56.950;24.126;2022-10-22T03:42:26;5.07;;;3.13;;
65145;SDS011;51730;56.950;24.126;2022-10-22T03:44:53;7.90;;;3.28;;
65145;SDS011;51730;56.950;24.126;2022-10-22T03:47:20;5.85;;;3.40;;
65145;SDS011;51730;56.950;24.126;2022-10-22T03:49:50;8.57;;;4.18;;
65145;SDS011;51730;56.950;24.126;2022-10-22T03:52:17;6.30;;;3.85;;
65145;SDS011;51730;56.950;24.126;2022-10-22T03:54:44;8.50;;;3.90;;
65145;SDS011;51730;56.950;24.126;2022-10-22T03:57:11;7.90;;;3.88;;
65145;SDS011;51730;56.950;24.126;2022-10-22T03:59:39;8.02;;;4.10;;
65145;SDS011;51730;56.950;24.126;2022-10-22T04:02:08;6.97;;;3.95;;
65145;SDS011;51730;56.950;24.126;2022-10-22T04:04:36;12.18;;;3.90;;
65145;SDS011;51730;56.950;24.126;2022-10-22T04:07:04;6.97;;;3.72;;
65145;SDS011;51730;56.950;24.126;2022-10-22T04:09:32;7.28;;;3.90;;
65145;SDS011;51730;56.950;24.126;2022-10-22T04:12:00;7.85;;;3.85;;
65145;SDS011;51730;56.950;24.126;2022-10-22T04:14:27;6.15;;;3.78;;
65145;SDS011;51730;56.950;24.126;2022-10-22T04:16:54;8.13;;;3.67;;
65145;SDS011;51730;56.950;24.126;2022-10-22T04:19:21;6.45;;;3.75;;
65145;SDS011;51730;56.950;24.126;2022-10-22T04:21:48;7.25;;;3.90;;
65145;SDS011;51730;56.950;24.126;2022-10-22T04:24:15;7.38;;;3.72;;
65145;SDS011;51730;56.950;24.126;2022-10-22T04:26:42;8.18;;;4.15;;
65145;SDS011;51730;56.950;24.126;2022-10-22T04:29:08;5.45;;;3.97;;
65145;SDS011;51730;56.950;24.126;2022-10-22T04:31:42;5.28;;;3.75;;
65145;SDS011;51730;56.950;24.126;2022-10-22T04:34:09;9.40;;;3.67;;
65145;SDS011;51730;56.950;24.126;2022-10-22T04:36:36;6.97;;;4.18;;
65145;SDS011;51730;56.950;24.126;2022-10-22T04:39:03;5.13;;;3.20;;
65145;SDS011;51730;56.950;24.126;2022-10-22T04:41:32;4.85;;;3.45;;
65145;SDS011;51730;56.950;24.126;2022-10-22T04:44:00;7.15;;;4.03;;
65145;SDS011;51730;56.950;24.126;2022-10-22T04:46:29;7.28;;;3.78;;
65145;SDS011;51730;56.950;24.126;2022-10-22T04:48:57;4.40;;;3.38;;
65145;SDS011;51730;56.950;24.126;2022-10-22T04:51:24;9.02;;;3.97;;
65145;SDS011;51730;56.950;24.126;2022-10-22T04:53:52;8.40;;;4.55;;
65145;SDS011;51730;56.950;24.126;2022-10-22T04:56:21;8.55;;;4.32;;
65145;SDS011;51730;56.950;24.126;2022-10-22T04:58:53;10.27;;;5.05;;
65145;SDS011;51730;56.950;24.126;2022-10-22T05:01:29;8.63;;;4.60;;
65145;SDS011;51730;56.950;24.126;2022-10-22T05:04:04;7.75;;;3.65;;
65145;SDS011;51730;56.950;24.126;2022-10-22T05:06:33;8.00;;;3.78;;
65145;SDS011;51730;56.950;24.126;2022-10-22T05:09:02;9.00;;;3.50;;
65145;SDS011;51730;56.950;24.126;2022-10-22T05:11:36;7.68;;;3.70;;
65145;SDS011;51730;56.950;24.126;2022-10-22T05:14:04;6.93;;;3.55;;
65145;SDS011;51730;56.950;24.126;2022-10-22T05:16:33;6.80;;;3.63;;
65145;SDS011;51730;56.950;24.126;2022-10-22T05:19:01;6.00;;;3.50;;
65145;SDS011;51730;56.950;24.126;2022-10-22T05:21:29;11.05;;;4.53;;
65145;SDS011;51730;56.950;24.126;2022-10-22T05:23:56;10.27;;;4.85;;
65145;SDS011;51730;56.950;24.126;2022-10-22T05:26:27;9.33;;;4.80;;
65145;SDS011;51730;56.950;24.126;2022-10-22T05:28:54;7.68;;;5.38;;
65145;SDS011;51730;56.950;24.126;2022-10-22T05:31:21;8.13;;;5.45;;
65145;SDS011;51730;56.950;24.126;2022-10-22T05:33:48;8.13;;;4.82;;
65145;SDS011;51730;56.950;24.126;2022-10-22T05:36:18;10.23;;;5.80;;
65145;SDS011;51730;56.950;24.126;2022-10-22T05:38:46;12.13;;;5.55;;
65145;SDS011;51730;56.950;24.126;2022-10-22T05:41:21;7.85;;;4.80;;
65145;SDS011;51730;56.950;24.126;2022-10-22T05:43:49;8.68;;;4.82;;
65145;SDS011;51730;56.950;24.126;2022-10-22T05:46:17;7.95;;;4.97;;
65145;SDS011;51730;56.950;24.126;2022-10-22T05:48:58;9.07;;;4.80;;
65145;SDS011;51730;56.950;24.126;2022-10-22T05:51:27;8.60;;;4.65;;
65145;SDS011;51730;56.950;24.126;2022-10-22T05:53:56;8.15;;;4.93;;
65145;SDS011;51730;56.950;24.126;2022-10-22T05:56:26;10.68;;;5.38;;
65145;SDS011;51730;56.950;24.126;2022-10-22T05:58:54;11.32;;;5.55;;
65145;SDS011;51730;56.950;24.126;2022-10-22T06:01:23;9.88;;;5.10;;
65145;SDS011;51730;56.950;24.126;2022-10-22T06:03:53;8.50;;;4.65;;
65145;SDS011;51730;56.950;24.126;2022-10-22T06:08:56;7.60;;;5.18;;
65145;SDS011;51730;56.950;24.126;2022-10-22T06:11:46;8.98;;;4.95;;
65145;SDS011;51730;56.950;24.126;2022-10-22T06:14:13;8.55;;;4.88;;
65145;SDS011;51730;56.950;24.126;2022-10-22T06:16:40;10.07;;;4.72;;
65145;SDS011;51730;56.950;24.126;2022-10-22T06:19:09;10.73;;;4.70;;
65145;SDS011;51730;56.950;24.126;2022-10-22T06:21:38;10.20;;;4.97;;
65145;SDS011;51730;56.950;24.126;2022-10-22T06:24:05;10.10;;;4.82;;
65145;SDS011;51730;56.950;24.126;2022-10-22T06:26:32;10.52;;;5.30;;
65145;SDS011;51730;56.950;24.126;2022-10-22T06:28:59;14.07;;;6.18;;
65145;SDS011;51730;56.950;24.126;2022-10-22T06:31:26;23.90;;;12.20;;
65145;SDS011;51730;56.950;24.126;2022-10-22T06:33:55;14.23;;;7.55;;
65145;SDS011;51730;56.950;24.126;2022-10-22T06:36:22;13.80;;;8.05;;
65145;SDS011;51730;56.950;24.126;2022-10-22T06:38:51;11.82;;;6.20;;
65145;SDS011;51730;56.950;24.126;2022-10-22T06:41:19;33.20;;;8.73;;
65145;SDS011;51730;56.950;24.126;2022-10-22T06:43:52;13.23;;;6.18;;
65145;SDS011;51730;56.950;24.126;2022-10-22T06:46:20;11.35;;;6.07;;
65145;SDS011;51730;56.950;24.126;2022-10-22T06:48:51;16.67;;;5.18;;
65145;SDS011;51730;56.950;24.126;2022-10-22T06:51:19;10.20;;;4.63;;
65145;SDS011;51730;56.950;24.126;2022-10-22T06:53:47;8.88;;;4.95;;
65145;SDS011;51730;56.950;24.126;2022-10-22T06:56:16;8.07;;;4.72;;
65145;SDS011;51730;56.950;24.126;2022-10-22T06:58:51;12.68;;;6.35;;
65145;SDS011;51730;56.950;24.126;2022-10-22T07:01:21;13.30;;;7.03;;
65145;SDS011;51730;56.950;24.126;2022-10-22T07:03:50;14.35;;;6.30;;
65145;SDS011;51730;56.950;24.126;2022-10-22T07:06:17;9.23;;;5.22;;
65145;SDS011;51730;56.950;24.126;2022-10-22T07:08:45;9.07;;;4.88;;
65145;SDS011;51730;56.950;24.126;2022-10-22T07:11:13;8.18;;;4.78;;
65145;SDS011;51730;56.950;24.126;2022-10-22T07:13:44;7.93;;;4.82;;
65145;SDS011;51730;56.950;24.126;2022-10-22T07:16:11;9.00;;;4.25;;
65145;SDS011;51730;56.950;24.126;2022-10-22T07:18:39;10.80;;;4.70;;
65145;SDS011;51730;56.950;24.126;2022-10-22T07:21:07;10.15;;;4.32;;
65145;SDS011;51730;56.950;24.126;2022-10-22T07:23:35;8.10;;;4.20;;
65145;SDS011;51730;56.950;24.126;2022-10-22T07:26:03;10.30;;;5.65;;
65145;SDS011;51730;56.950;24.126;2022-10-22T07:28:35;11.85;;;4.90;;
65145;SDS011;51730;56.950;24.126;2022-10-22T07:31:05;8.98;;;4.10;;
65145;SDS011;51730;56.950;24.126;2022-10-22T07:33:34;9.88;;;3.90;;
65145;SDS011;51730;56.950;24.126;2022-10-22T07:36:02;10.35;;;4.03;;
65145;SDS011;51730;56.950;24.126;2022-10-22T07:38:30;5.70;;;3.60;;
65145;SDS011;51730;56.950;24.126;2022-10-22T07:40:57;8.45;;;4.47;;
65145;SDS011;51730;56.950;24.126;2022-10-22T07:43:25;9.00;;;3.75;;
65145;SDS011;51730;56.950;24.126;2022-10-22T07:45:52;6.10;;;3.25;;
65145;SDS011;51730;56.950;24.126;2022-10-22T07:48:21;6.90;;;3.40;;
65145;SDS011;51730;56.950;24.126;2022-10-22T07:50:49;5.55;;;3.35;;
65145;SDS011;51730;56.950;24.126;2022-10-22T07:53:17;8.38;;;3.72;;
65145;SDS011;51730;56.950;24.126;2022-10-22T07:55:46;6.22;;;3.80;;
65145;SDS011;51730;56.950;24.126;2022-10-22T07:58:14;4.78;;;3.08;;
65145;SDS011;51730;56.950;24.126;2022-10-22T08:00:43;12.98;;;7.22;;
65145;SDS011;51730;56.950;24.126;2022-10-22T08:03:10;10.55;;;5.28;;
65145;SDS011;51730;56.950;24.126;2022-10-22T08:05:38;10.00;;;5.97;;
65145;SDS011;51730;56.950;24.126;2022-10-22T08:08:06;8.80;;;3.78;;
65145;SDS011;51730;56.950;24.126;2022-10-22T08:10:33;7.00;;;4.57;;
65145;SDS011;51730;56.950;24.126;2022-10-22T08:13:00;6.97;;;4.10;;
65145;SDS011;51730;56.950;24.126;2022-10-22T08:15:27;6.82;;;3.78;;
65145;SDS011;51730;56.950;24.126;2022-10-22T08:17:54;7.00;;;3.72;;
65145;SDS011;51730;56.950;24.126;2022-10-22T08:20:21;7.45;;;3.70;;
65145;SDS011;51730;56.950;24.126;2022-10-22T08:22:48;6.93;;;3.60;;
65145;SDS011;51730;56.950;24.126;2022-10-22T08:25:15;7.47;;;3.28;;
65145;SDS011;51730;56.950;24.126;2022-10-22T08:27:43;6.38;;;3.33;;
65145;SDS011;51730;56.950;24.126;2022-10-22T08:30:11;8.10;;;3.63;;
65145;SDS011;51730;56.950;24.126;2022-10-22T08:32:38;8.27;;;3.70;;
65145;SDS011;51730;56.950;24.126;2022-10-22T08:35:06;6.78;;;3.25;;
65145;SDS011;51730;56.950;24.126;2022-10-22T08:37:33;4.70;;;3.15;;
65145;SDS011;51730;56.950;24.126;2022-10-22T08:40:00;7.07;;;3.88;;
65145;SDS011;51730;56.950;24.126;2022-10-22T08:45:39;6.03;;;3.70;;
65145;SDS011;51730;56.950;24.126;2022-10-22T08:48:48;9.80;;;5.70;;
65145;SDS011;51730;56.950;24.126;2022-10-22T08:51:32;6.78;;;4.18;;
65145;SDS011;51730;56.950;24.126;2022-10-22T08:54:16;7.18;;;3.67;;
65145;SDS011;51730;56.950;24.126;2022-10-22T08:56:46;15.25;;;4.05;;
65145;SDS011;51730;56.950;24.126;2022-10-22T08:59:27;9.32;;;4.90;;
65145;SDS011;51730;56.950;24.126;2022-10-22T09:02:01;10.82;;;4.22;;
65145;SDS011;51730;56.950;24.126;2022-10-22T09:04:38;6.32;;;3.70;;
65145;SDS011;51730;56.950;24.126;2022-10-22T09:07:13;10.95;;;4.38;;
65145;SDS011;51730;56.950;24.126;2022-10-22T09:09:41;10.05;;;3.60;;
65145;SDS011;51730;56.950;24.126;2022-10-22T09:12:13;7.88;;;3.58;;
65145;SDS011;51730;56.950;24.126;2022-10-22T09:14:45;6.13;;;3.63;;
65145;SDS011;51730;56.950;24.126;2022-10-22T09:17:26;7.55;;;3.83;;
65145;SDS011;51730;56.950;24.126;2022-10-22T09:20:20;6.25;;;3.30;;
65145;SDS011;51730;56.950;24.126;2022-10-22T09:25:58;6.35;;;3.90;;
65145;SDS011;51730;56.950;24.126;2022-10-22T09:28:25;7.57;;;4.47;;
65145;SDS011;51730;56.950;24.126;2022-10-22T09:30:52;7.32;;;4.50;;
65145;SDS011;51730;56.950;24.126;2022-10-22T09:33:26;6.75;;;3.88;;
65145;SDS011;51730;56.950;24.126;2022-10-22T09:35:57;7.03;;;3.45;;
65145;SDS011;51730;56.950;24.126;2022-10-22T09:38:35;7.55;;;3.95;;
65145;SDS011;51730;56.950;24.126;2022-10-22T09:41:11;10.55;;;4.00;;
65145;SDS011;51730;56.950;24.126;2022-10-22T09:43:39;9.45;;;5.45;;
65145;SDS011;51730;56.950;24.126;2022-10-22T09:46:07;8.77;;;4.30;;
65145;SDS011;51730;56.950;24.126;2022-10-22T09:48:41;9.15;;;3.95;;
65145;SDS011;51730;56.950;24.126;2022-10-22T09:53:54;8.10;;;4.38;;
65145;SDS011;51730;56.950;24.126;2022-10-22T09:56:27;6.90;;;3.65;;
65145;SDS011;51730;56.950;24.126;2022-10-22T09:59:01;5.38;;;3.30;;
65145;SDS011;51730;56.950;24.126;2022-10-22T10:04:07;7.63;;;3.93;;
65145;SDS011;51730;56.950;24.126;2022-10-22T10:06:39;11.20;;;6.25;;
65145;SDS011;51730;56.950;24.126;2022-10-22T10:09:18;10.05;;;5.38;;
65145;SDS011;51730;56.950;24.126;2022-10-22T10:14:52;9.05;;;4.53;;
65145;SDS011;51730;56.950;24.126;2022-10-22T10:41:04;8.65;;;4.75;;
65145;SDS011;51730;56.950;24.126;2022-10-22T10:46:38;5.43;;;3.80;;
65145;SDS011;51730;56.950;24.126;2022-10-22T10:49:25;8.68;;;3.70;;
65145;SDS011;51730;56.950;24.126;2022-10-22T11:05:41;6.82;;;3.72;;
65145;SDS011;51730;56.950;24.126;2022-10-22T11:08:10;8.90;;;3.95;;
65145;SDS011;51730;56.950;24.126;2022-10-22T11:16:23;8.07;;;3.30;;
65145;SDS011;51730;56.950;24.126;2022-10-22T11:27:31;15.23;;;10.05;;
65145;SDS011;51730;56.950;24.126;2022-10-22T11:32:38;8.57;;;4.57;;
65145;SDS011;51730;56.950;24.126;2022-10-22T11:35:11;7.43;;;4.85;;
65145;SDS011;51730;56.950;24.126;2022-10-22T11:37:43;8.07;;;4.32;;
65145;SDS011;51730;56.950;24.126;2022-10-22T11:40:17;7.03;;;4.40;;
65145;SDS011;51730;56.950;24.126;2022-10-22T11:42:53;7.65;;;4.70;;
65145;SDS011;51730;56.950;24.126;2022-10-22T11:50:23;17.13;;;7.10;;
65145;SDS011;51730;56.950;24.126;2022-10-22T11:53:00;8.02;;;4.80;;
65145;SDS011;51730;56.950;24.126;2022-10-22T11:55:31;8.30;;;4.70;;
65145;SDS011;51730;56.950;24.126;2022-10-22T11:57:59;10.27;;;4.95;;
65145;SDS011;51730;56.950;24.126;2022-10-22T12:00:35;10.35;;;4.80;;
65145;SDS011;51730;56.950;24.126;2022-10-22T12:11:36;9.00;;;3.95;;
65145;SDS011;51730;56.950;24.126;2022-10-22T12:17:30;9.82;;;4.38;;
65145;SDS011;51730;56.950;24.126;2022-10-22T12:19:44;13.38;;;6.53;;
65145;SDS011;51730;56.950;24.126;2022-10-22T12:24:58;10.57;;;5.28;;
65145;SDS011;51730;56.950;24.126;2022-10-22T12:27:32;9.60;;;4.93;;
65145;SDS011;51730;56.950;24.126;2022-10-22T12:30:12;8.80;;;4.82;;
65145;SDS011;51730;56.950;24.126;2022-10-22T12:32:50;7.78;;;4.38;;
65145;SDS011;51730;56.950;24.126;2022-10-22T12:35:20;8.25;;;4.65;;
65145;SDS011;51730;56.950;24.126;2022-10-22T12:37:50;6.78;;;4.38;;
65145;SDS011;51730;56.950;24.126;2022-10-22T12:40:20;8.23;;;4.03;;
65145;SDS011;51730;56.950;24.126;2022-10-22T12:42:50;10.20;;;4.40;;
65145;SDS011;51730;56.950;24.126;2022-10-22T12:45:21;7.35;;;3.88;;
65145;SDS011;51730;56.950;24.126;2022-10-22T12:47:49;9.52;;;4.30;;
65145;SDS011;51730;56.950;24.126;2022-10-22T12:50:18;12.68;;;5.70;;
65145;SDS011;51730;56.950;24.126;2022-10-22T12:52:50;12.05;;;6.38;;
65145;SDS011;51730;56.950;24.126;2022-10-22T12:55:21;10.05;;;5.75;;
65145;SDS011;51730;56.950;24.126;2022-10-22T12:57:51;14.35;;;8.68;;
65145;SDS011;51730;56.950;24.126;2022-10-22T13:00:26;9.93;;;6.15;;
65145;SDS011;51730;56.950;24.126;2022-10-22T13:02:58;10.32;;;5.25;;
65145;SDS011;51730;56.950;24.126;2022-10-22T13:05:30;9.98;;;5.30;;
65145;SDS011;51730;56.950;24.126;2022-10-22T13:10:36;13.35;;;5.63;;
65145;SDS011;51730;56.950;24.126;2022-10-22T13:13:05;11.00;;;5.45;;
65145;SDS011;51730;56.950;24.126;2022-10-22T13:15:34;7.78;;;4.72;;
65145;SDS011;51730;56.950;24.126;2022-10-22T13:18:04;11.07;;;5.10;;
65145;SDS011;51730;56.950;24.126;2022-10-22T13:20:56;10.60;;;4.75;;
65145;SDS011;51730;56.950;24.126;2022-10-22T13:23:28;11.38;;;5.25;;
65145;SDS011;51730;56.950;24.126;2022-10-22T13:28:40;13.77;;;6.60;;
65145;SDS011;51730;56.950;24.126;2022-10-22T13:31:08;11.10;;;5.63;;
65145;SDS011;51730;56.950;24.126;2022-10-22T13:33:41;11.20;;;5.60;;
65145;SDS011;51730;56.950;24.126;2022-10-22T13:36:11;14.73;;;6.13;;
65145;SDS011;51730;56.950;24.126;2022-10-22T13:38:41;11.65;;;5.15;;
65145;SDS011;51730;56.950;24.126;2022-10-22T13:43:49;12.43;;;5.55;;
65145;SDS011;51730;56.950;24.126;2022-10-22T13:46:16;11.98;;;6.10;;
65145;SDS011;51730;56.950;24.126;2022-10-22T13:48:44;13.05;;;6.97;;
65145;SDS011;51730;56.950;24.126;2022-10-22T13:51:13;16.95;;;7.60;;
65145;SDS011;51730;56.950;24.126;2022-10-22T13:53:44;15.90;;;8.15;;
65145;SDS011;51730;56.950;24.126;2022-10-22T13:56:12;17.73;;;9.18;;
65145;SDS011;51730;56.950;24.126;2022-10-22T14:01:24;21.02;;;8.35;;
65145;SDS011;51730;56.950;24.126;2022-10-22T14:03:53;18.90;;;7.72;;
65145;SDS011;51730;56.950;24.126;2022-10-22T14:06:29;20.95;;;8.32;;
65145;SDS011;51730;56.950;24.126;2022-10-22T14:08:58;18.40;;;8.00;;
65145;SDS011;51730;56.950;24.126;2022-10-22T14:11:27;17.08;;;8.48;;
65145;SDS011;51730;56.950;24.126;2022-10-22T14:13:56;17.45;;;8.80;;
65145;SDS011;51730;56.950;24.126;2022-10-22T14:16:24;31.50;;;13.98;;
65145;SDS011;51730;56.950;24.126;2022-10-22T14:18:53;22.95;;;8.82;;
65145;SDS011;51730;56.950;24.126;2022-10-22T14:21:21;18.60;;;8.85;;
65145;SDS011;51730;56.950;24.126;2022-10-22T14:23:48;22.85;;;9.70;;
65145;SDS011;51730;56.950;24.126;2022-10-22T14:26:21;20.63;;;9.65;;
65145;SDS011;51730;56.950;24.126;2022-10-22T14:28:50;18.80;;;8.25;;
65145;SDS011;51730;56.950;24.126;2022-10-22T14:31:38;16.75;;;7.63;;
65145;SDS011;51730;56.950;24.126;2022-10-22T14:34:11;17.35;;;8.05;;
65145;SDS011;51730;56.950;24.126;2022-10-22T14:36:39;17.73;;;8.07;;
65145;SDS011;51730;56.950;24.126;2022-10-22T14:39:09;15.52;;;8.25;;
65145;SDS011;51730;56.950;24.126;2022-10-22T14:41:36;17.77;;;7.88;;
65145;SDS011;51730;56.950;24.126;2022-10-22T14:44:04;16.65;;;7.18;;
65145;SDS011;51730;56.950;24.126;2022-10-22T14:46:31;16.25;;;6.95;;
65145;SDS011;51730;56.950;24.126;2022-10-22T14:48:57;12.57;;;6.88;;
65145;SDS011;51730;56.950;24.126;2022-10-22T14:51:24;16.02;;;7.15;;
65145;SDS011;51730;56.950;24.126;2022-10-22T14:53:51;19.85;;;7.03;;
65145;SDS011;51730;56.950;24.126;2022-10-22T14:56:18;13.27;;;6.05;;
65145;SDS011;51730;56.950;24.126;2022-10-22T14:58:48;14.05;;;6.38;;
65145;SDS011;51730;56.950;24.126;2022-10-22T15:01:15;12.77;;;6.18;;
65145;SDS011;51730;56.950;24.126;2022-10-22T15:03:42;10.07;;;5.80;;
65145;SDS011;51730;56.950;24.126;2022-10-22T15:06:09;12.05;;;6.10;;
65145;SDS011;51730;56.950;24.126;2022-10-22T15:08:36;15.15;;;7.57;;
65145;SDS011;51730;56.950;24.126;2022-10-22T15:11:09;18.90;;;10.55;;
65145;SDS011;51730;56.950;24.126;2022-10-22T15:13:37;16.33;;;7.18;;
65145;SDS011;51730;56.950;24.126;2022-10-22T15:16:07;14.98;;;7.43;;
65145;SDS011;51730;56.950;24.126;2022-10-22T15:18:35;11.57;;;7.00;;
65145;SDS011;51730;56.950;24.126;2022-10-22T15:21:06;14.75;;;7.03;;
65145;SDS011;51730;56.950;24.126;2022-10-22T15:23:38;12.43;;;7.40;;
65145;SDS011;51730;56.950;24.126;2022-10-22T15:26:06;14.07;;;7.60;;
65145;SDS011;51730;56.950;24.126;2022-10-22T15:28:34;18.42;;;7.93;;
65145;SDS011;51730;56.950;24.126;2022-10-22T15:31:02;18.92;;;8.38;;
65145;SDS011;51730;56.950;24.126;2022-10-22T15:33:29;18.17;;;8.88;;
65145;SDS011;51730;56.950;24.126;2022-10-22T15:35:56;21.98;;;11.82;;
65145;SDS011;51730;56.950;24.126;2022-10-22T15:38:27;27.63;;;13.57;;
65145;SDS011;51730;56.950;24.126;2022-10-22T15:41:04;29.85;;;14.73;;
65145;SDS011;51730;56.950;24.126;2022-10-22T15:43:33;33.33;;;15.43;;
65145;SDS011;51730;56.950;24.126;2022-10-22T15:46:16;31.75;;;15.48;;
65145;SDS011;51730;56.950;24.126;2022-10-22T15:48:44;34.53;;;17.25;;
65145;SDS011;51730;56.950;24.126;2022-10-22T15:51:16;34.85;;;17.05;;
65145;SDS011;51730;56.950;24.126;2022-10-22T15:53:49;37.80;;;19.15;;
65145;SDS011;51730;56.950;24.126;2022-10-22T15:56:17;39.47;;;21.38;;
65145;SDS011;51730;56.950;24.126;2022-10-22T15:58:45;40.22;;;18.92;;
65145;SDS011;51730;56.950;24.126;2022-10-22T16:01:12;40.65;;;19.30;;
65145;SDS011;51730;56.950;24.126;2022-10-22T16:03:40;44.05;;;20.42;;
65145;SDS011;51730;56.950;24.126;2022-10-22T16:06:07;42.22;;;20.85;;
65145;SDS011;51730;56.950;24.126;2022-10-22T16:08:34;50.65;;;23.48;;
65145;SDS011;51730;56.950;24.126;2022-10-22T16:11:02;48.45;;;25.15;;
65145;SDS011;51730;56.950;24.126;2022-10-22T16:13:30;41.70;;;21.55;;
65145;SDS011;51730;56.950;24.126;2022-10-22T16:15:57;46.83;;;22.70;;
65145;SDS011;51730;56.950;24.126;2022-10-22T16:18:24;42.95;;;21.15;;
65145;SDS011;51730;56.950;24.126;2022-10-22T16:20:50;40.75;;;20.77;;
65145;SDS011;51730;56.950;24.126;2022-10-22T16:23:17;39.88;;;20.73;;
65145;SDS011;51730;56.950;24.126;2022-10-22T16:25:46;44.05;;;20.80;;
65145;SDS011;51730;56.950;24.126;2022-10-22T16:28:13;43.67;;;20.05;;
65145;SDS011;51730;56.950;24.126;2022-10-22T16:30:40;38.60;;;19.23;;
65145;SDS011;51730;56.950;24.126;2022-10-22T16:33:07;37.70;;;18.88;;
65145;SDS011;51730;56.950;24.126;2022-10-22T16:35:39;44.25;;;19.27;;
65145;SDS011;51730;56.950;24.126;2022-10-22T16:38:08;40.75;;;18.85;;
65145;SDS011;51730;56.950;24.126;2022-10-22T16:40:36;36.05;;;17.25;;
65145;SDS011;51730;56.950;24.126;2022-10-22T16:43:03;36.08;;;17.27;;
65145;SDS011;51730;56.950;24.126;2022-10-22T16:45:30;36.10;;;17.30;;
65145;SDS011;51730;56.950;24.126;2022-10-22T16:47:57;37.72;;;18.58;;
65145;SDS011;51730;56.950;24.126;2022-10-22T16:50:24;40.75;;;17.30;;
65145;SDS011;51730;56.950;24.126;2022-10-22T16:52:51;29.92;;;16.02;;